createdAt,value
2022-10-21T00:00:14.804Z,99.90
2022-10-21T00:02:17.647Z,99.90
2022-10-21T00:04:20.469Z,99.90
2022-10-21T00:06:23.322Z,99.90
2022-10-21T00:08:27.552Z,99.90
2022-10-21T00:10:30.457Z,99.90
2022-10-21T00:12:33.440Z,99.90
2022-10-21T00:14:36.292Z,99.90
2022-10-21T00:16:39.143Z,99.90
2022-10-21T00:18:42.698Z,99.90
2022-10-21T00:20:45.530Z,99.90
2022-10-21T00:22:48.373Z,99.90
2022-10-21T00:24:52.542Z,99.90
2022-10-21T00:26:56.235Z,99.90
2022-10-21T00:28:59.145Z,99.90
2022-10-21T00:31:01.988Z,99.90
2022-10-21T00:33:04.872Z,99.90
2022-10-21T00:35:08.277Z,99.90
2022-10-21T00:37:11.188Z,99.90
2022-10-21T00:39:14.012Z,99.90
2022-10-21T00:41:19.695Z,99.90
2022-10-21T00:43:22.608Z,99.90
2022-10-21T00:45:25.915Z,99.90
2022-10-21T00:47:28.770Z,99.90
2022-10-21T00:49:34.439Z,99.90
2022-10-21T00:51:37.310Z,99.90
2022-10-21T00:53:41.041Z,99.90
2022-10-21T00:55:47.230Z,99.90
2022-10-21T00:57:51.425Z,99.90
2022-10-21T00:59:55.793Z,99.90
2022-10-21T01:01:58.666Z,99.90
2022-10-21T01:04:03.604Z,99.90
2022-10-21T01:06:08.324Z,99.90
2022-10-21T01:08:11.175Z,99.90
2022-10-21T01:10:14.032Z,99.90
2022-10-21T01:12:20.285Z,99.90
2022-10-21T01:14:37.548Z,99.90
2022-10-21T01:16:45.813Z,99.90
2022-10-21T01:18:53.403Z,99.90
2022-10-21T01:21:06.666Z,99.90
2022-10-21T01:23:43.462Z,99.90
2022-10-21T01:26:23.473Z,99.90
2022-10-21T01:28:30.095Z,99.90
2022-10-21T01:30:38.549Z,99.90
2022-10-21T01:33:01.310Z,99.90
2022-10-21T01:35:05.735Z,99.90
2022-10-21T01:37:11.587Z,99.90
2022-10-21T01:39:18.930Z,99.90
2022-10-21T01:41:24.274Z,99.90
2022-10-21T01:43:35.569Z,99.90
2022-10-21T01:45:42.568Z,99.90
2022-10-21T01:47:47.533Z,99.90
2022-10-21T01:49:52.233Z,99.90
2022-10-21T01:51:55.188Z,99.90
2022-10-21T01:54:02.879Z,99.90
2022-10-21T01:56:06.076Z,99.90
2022-10-21T01:58:09.919Z,99.90
2022-10-21T02:00:13.506Z,99.90
2022-10-21T02:02:17.801Z,99.90
2022-10-21T02:04:20.621Z,99.90
2022-10-21T02:06:25.219Z,99.90
2022-10-21T02:08:28.204Z,99.90
2022-10-21T02:10:33.355Z,99.90
2022-10-21T02:12:36.638Z,99.90
2022-10-21T02:14:42.322Z,99.90
2022-10-21T02:16:45.178Z,99.90
2022-10-21T02:18:49.361Z,99.90
2022-10-21T02:20:53.833Z,99.90
2022-10-21T02:22:56.688Z,99.90
2022-10-21T02:25:00.886Z,99.90
2022-10-21T02:27:03.863Z,99.90
2022-10-21T02:29:06.699Z,99.90
2022-10-21T02:31:17.119Z,99.90
2022-10-21T02:33:20.981Z,99.90
2022-10-21T02:35:29.697Z,99.90
2022-10-21T02:37:33.560Z,99.90
2022-10-21T02:39:38.107Z,99.90
2022-10-21T02:41:41.147Z,99.90
2022-10-21T02:43:47.229Z,99.90
2022-10-21T02:45:50.090Z,99.90
2022-10-21T02:47:52.982Z,99.90
2022-10-21T02:49:55.870Z,99.90
2022-10-21T02:52:00.101Z,99.90
2022-10-21T02:54:02.976Z,99.90
2022-10-21T02:56:06.172Z,99.90
2022-10-21T02:58:09.034Z,99.90
2022-10-21T03:00:13.244Z,99.90
2022-10-21T03:02:16.149Z,99.90
2022-10-21T03:04:19.029Z,99.90
2022-10-21T03:06:21.939Z,99.90
2022-10-21T03:08:26.128Z,99.90
2022-10-21T03:10:28.952Z,99.90
2022-10-21T03:12:31.847Z,99.90
2022-10-21T03:14:34.689Z,99.90
2022-10-21T03:16:37.547Z,99.90
2022-10-21T03:18:40.366Z,99.90
2022-10-21T03:20:43.226Z,99.90
2022-10-21T03:22:46.077Z,99.90
2022-10-21T03:24:50.264Z,99.90
2022-10-21T03:26:53.130Z,99.90
2022-10-21T03:28:55.960Z,99.90
2022-10-21T03:30:58.823Z,99.90
2022-10-21T03:33:01.747Z,99.90
2022-10-21T03:35:04.724Z,99.90
2022-10-21T03:37:07.609Z,99.90
2022-10-21T03:39:11.514Z,99.90
2022-10-21T03:41:15.752Z,99.90
2022-10-21T03:43:18.605Z,99.90
2022-10-21T03:45:21.449Z,99.90
2022-10-21T03:47:24.318Z,99.90
2022-10-21T03:49:27.287Z,99.90
2022-10-21T03:51:30.176Z,99.90
2022-10-21T03:53:45.229Z,99.90
2022-10-21T03:55:48.071Z,99.90
2022-10-21T03:57:52.303Z,99.90
2022-10-21T03:59:55.177Z,99.90
2022-10-21T04:01:58.118Z,99.90
2022-10-21T04:04:00.982Z,99.90
2022-10-21T04:06:03.855Z,99.90
2022-10-21T04:08:06.825Z,99.90
2022-10-21T04:10:10.258Z,99.90
2022-10-21T04:12:13.159Z,99.90
2022-10-21T04:14:17.359Z,99.90
2022-10-21T04:16:21.071Z,99.90
2022-10-21T04:18:23.899Z,99.90
2022-10-21T04:20:26.736Z,99.90
2022-10-21T04:22:29.585Z,99.90
2022-10-21T04:24:32.481Z,99.90
2022-10-21T04:26:35.362Z,99.90
2022-10-21T04:28:38.299Z,99.90
2022-10-21T04:30:42.512Z,99.90
2022-10-21T04:32:45.353Z,99.90
2022-10-21T04:34:48.202Z,99.90
2022-10-21T04:36:51.056Z,99.90
2022-10-21T04:38:53.983Z,99.90
2022-10-21T04:40:57.795Z,99.90
2022-10-21T04:43:00.636Z,99.90
2022-10-21T04:45:03.479Z,99.90
2022-10-21T04:47:07.710Z,99.90
2022-10-21T04:49:10.566Z,99.90
2022-10-21T04:51:13.457Z,99.90
2022-10-21T04:53:16.337Z,99.90
2022-10-21T04:55:19.215Z,99.90
2022-10-21T04:57:22.083Z,99.90
2022-10-21T04:59:24.954Z,99.90
2022-10-21T05:01:27.873Z,99.90
2022-10-21T05:03:32.737Z,99.90
2022-10-21T05:05:35.610Z,99.90
2022-10-21T05:07:38.478Z,99.90
2022-10-21T05:09:41.309Z,99.90
2022-10-21T05:11:44.410Z,99.90
2022-10-21T05:13:47.263Z,99.90
2022-10-21T05:15:50.103Z,99.90
2022-10-21T05:17:52.982Z,99.90
2022-10-21T05:19:57.169Z,99.90
2022-10-21T05:22:00.047Z,99.90
2022-10-21T05:24:02.901Z,99.90
2022-10-21T05:26:06.020Z,99.90
2022-10-21T05:28:08.860Z,99.90
2022-10-21T05:30:12.364Z,99.90
2022-10-21T05:32:15.229Z,99.90
2022-10-21T05:34:18.204Z,99.90
2022-10-21T05:36:24.134Z,99.90
2022-10-21T05:38:27.337Z,99.90
2022-10-21T05:40:30.253Z,99.90
2022-10-21T05:42:33.125Z,99.90
2022-10-21T05:44:35.951Z,99.90
2022-10-21T05:46:38.794Z,99.90
2022-10-21T05:48:41.680Z,99.90
2022-10-21T05:50:44.937Z,99.90
2022-10-21T05:52:49.149Z,99.90
2022-10-21T05:54:51.968Z,99.90
2022-10-21T05:56:56.663Z,99.90
2022-10-21T05:58:59.493Z,99.90
2022-10-21T06:01:02.575Z,99.90
2022-10-21T06:03:05.502Z,99.90
2022-10-21T06:05:08.602Z,99.90
2022-10-21T06:07:11.453Z,99.90
2022-10-21T06:09:15.724Z,99.90
2022-10-21T06:11:19.273Z,99.90
2022-10-21T06:13:22.120Z,99.90
2022-10-21T06:15:24.964Z,99.90
2022-10-21T06:17:27.833Z,99.90
2022-10-21T06:19:30.958Z,99.90
2022-10-21T06:21:33.781Z,99.90
2022-10-21T06:23:36.737Z,99.90
2022-10-21T06:25:40.943Z,99.90
2022-10-21T06:27:43.791Z,99.90
2022-10-21T06:29:46.653Z,99.90
2022-10-21T06:31:49.505Z,99.90
2022-10-21T06:33:52.360Z,99.90
2022-10-21T06:35:55.232Z,99.90
2022-10-21T06:37:58.096Z,99.90
2022-10-21T06:40:00.939Z,99.90
2022-10-21T06:42:05.236Z,99.90
2022-10-21T06:44:08.069Z,99.90
2022-10-21T06:46:12.290Z,99.90
2022-10-21T06:48:15.148Z,99.90
2022-10-21T06:50:18.457Z,99.90
2022-10-21T06:52:21.365Z,99.90
2022-10-21T06:54:24.239Z,99.90
2022-10-21T06:56:27.901Z,99.90
2022-10-21T06:58:32.239Z,99.90
2022-10-21T07:00:35.067Z,99.90
2022-10-21T07:02:38.212Z,99.90
2022-10-21T07:04:44.753Z,99.90
2022-10-21T07:06:49.015Z,99.90
2022-10-21T07:08:59.570Z,99.90
2022-10-21T07:11:02.637Z,99.90
2022-10-21T07:13:05.526Z,99.90
2022-10-21T07:15:10.697Z,99.90
2022-10-21T07:17:13.541Z,99.90
2022-10-21T07:19:16.367Z,99.90
2022-10-21T07:21:20.611Z,99.90
2022-10-21T07:23:23.477Z,99.90
2022-10-21T07:25:26.396Z,99.90
2022-10-21T07:27:29.227Z,99.90
2022-10-21T07:29:32.047Z,99.90
2022-10-21T07:31:37.210Z,99.90
2022-10-21T07:33:40.089Z,99.90
2022-10-21T07:35:42.935Z,99.90
2022-10-21T07:37:45.788Z,99.90
2022-10-21T07:39:48.626Z,99.90
2022-10-21T07:41:52.333Z,99.90
2022-10-21T07:43:55.333Z,99.90
2022-10-21T07:46:01.784Z,99.90
2022-10-21T07:48:08.691Z,99.90
2022-10-21T07:50:11.521Z,99.90
2022-10-21T07:54:18.549Z,99.90
2022-10-21T07:56:22.323Z,99.90
2022-10-21T07:58:25.197Z,99.90
2022-10-21T08:00:28.051Z,99.90
2022-10-21T08:02:30.888Z,99.90
2022-10-21T08:04:35.076Z,99.90
2022-10-21T08:06:38.006Z,99.90
2022-10-21T08:08:40.925Z,99.90
2022-10-21T08:10:43.956Z,99.90
2022-10-21T08:12:47.065Z,99.90
2022-10-21T08:14:49.993Z,99.90
2022-10-21T08:16:53.652Z,99.90
2022-10-21T08:18:59.972Z,99.90
2022-10-21T08:21:05.126Z,99.90
2022-10-21T08:23:08.145Z,99.90
2022-10-21T08:25:11.695Z,99.90
2022-10-21T08:27:14.549Z,99.90
2022-10-21T08:29:17.477Z,99.90
2022-10-21T08:31:21.462Z,99.90
2022-10-21T08:33:24.326Z,99.90
2022-10-21T08:35:27.232Z,99.90
2022-10-21T08:37:32.089Z,99.90
2022-10-21T08:39:35.435Z,99.90
2022-10-21T08:42:12.601Z,99.90
2022-10-21T08:44:23.371Z,99.90
2022-10-21T08:46:28.248Z,99.90
2022-10-21T08:48:32.626Z,99.90
2022-10-21T08:50:37.656Z,99.90
2022-10-21T08:52:43.626Z,99.90
2022-10-21T08:54:47.918Z,99.90
2022-10-21T08:56:50.886Z,99.90
2022-10-21T08:58:53.755Z,99.90
2022-10-21T09:00:57.660Z,99.90
2022-10-21T09:03:08.749Z,99.90
2022-10-21T09:05:27.428Z,99.90
2022-10-21T09:07:33.670Z,99.90
2022-10-21T09:09:40.015Z,99.90
2022-10-21T09:11:56.249Z,99.90
2022-10-21T09:14:45.152Z,99.90
2022-10-21T09:16:51.081Z,99.90
2022-10-21T09:19:00.938Z,99.90
2022-10-21T09:21:07.555Z,99.90
2022-10-21T09:23:21.097Z,99.90
2022-10-21T09:25:27.597Z,99.90
2022-10-21T09:27:51.472Z,99.90
2022-10-21T09:29:57.396Z,99.90
2022-10-21T09:32:03.650Z,99.90
2022-10-21T09:34:06.501Z,99.90
2022-10-21T09:36:12.143Z,79.00
2022-10-21T09:38:17.537Z,49.30
2022-10-21T09:40:21.997Z,1.00
2022-10-21T09:44:49.068Z,1.00
2022-10-21T09:46:52.963Z,1.00
2022-10-21T09:51:20.745Z,1.00
2022-10-21T09:53:26.528Z,1.00
2022-10-21T09:55:30.337Z,1.00
2022-10-21T09:57:40.862Z,1.00
2022-10-21T09:59:56.605Z,1.00
2022-10-21T10:02:00.541Z,1.00
2022-10-21T10:04:10.167Z,1.00
2022-10-21T10:06:13.043Z,1.00
2022-10-21T10:08:31.657Z,1.00
2022-10-21T10:10:34.855Z,1.00
2022-10-21T10:12:39.387Z,1.00
2022-10-21T10:14:43.168Z,1.00
2022-10-21T10:16:46.013Z,1.00
2022-10-21T10:18:49.051Z,1.00
2022-10-21T10:21:05.675Z,1.00
2022-10-21T10:23:10.369Z,1.00
2022-10-21T10:25:21.562Z,1.00
2022-10-21T10:27:26.539Z,1.00
2022-10-21T10:29:30.764Z,1.00
2022-10-21T10:31:34.691Z,1.00
2022-10-21T10:33:37.561Z,1.00
2022-10-21T10:35:40.384Z,1.00
2022-10-21T10:39:53.025Z,1.00
2022-10-21T10:41:55.860Z,1.00
2022-10-21T10:43:58.734Z,1.00
2022-10-21T10:46:03.862Z,1.00
2022-10-21T10:48:07.797Z,15.30
2022-10-21T10:50:36.760Z,37.80
2022-10-21T10:52:39.615Z,39.50
2022-10-21T10:54:43.044Z,27.40
2022-10-21T10:56:48.338Z,37.40
2022-10-21T10:58:54.257Z,25.50
2022-10-21T11:00:58.464Z,34.20
2022-10-21T11:03:03.922Z,5.70
2022-10-21T11:05:19.532Z,1.00
2022-10-21T11:07:25.020Z,1.00
2022-10-21T11:09:27.957Z,1.00
2022-10-21T11:11:34.323Z,1.00
2022-10-21T11:13:42.070Z,37.70
2022-10-21T11:16:11.162Z,37.10
2022-10-21T11:18:25.837Z,56.10
2022-10-21T11:20:30.943Z,32.30
2022-10-21T11:22:38.898Z,57.80
2022-10-21T11:24:55.566Z,99.90
2022-10-21T11:26:59.893Z,4.20
2022-10-21T11:29:07.025Z,7.90
2022-10-21T11:31:12.773Z,55.50
2022-10-21T11:33:20.134Z,1.00
2022-10-21T11:35:30.182Z,10.70
2022-10-21T11:37:41.475Z,11.80
2022-10-21T11:39:45.613Z,1.00
2022-10-21T11:41:50.301Z,1.00
2022-10-21T11:43:57.610Z,1.00
2022-10-21T11:46:04.543Z,1.00
2022-10-21T11:48:14.529Z,47.00
2022-10-21T11:52:35.193Z,28.70
2022-10-21T11:55:11.002Z,38.20
2022-10-21T11:57:15.990Z,98.60
2022-10-21T11:59:27.325Z,99.90
2022-10-21T12:01:38.490Z,99.90
2022-10-21T12:03:48.693Z,99.90
2022-10-21T12:05:56.126Z,99.90
2022-10-21T12:08:09.662Z,99.90
2022-10-21T12:10:15.001Z,99.90
2022-10-21T12:12:18.536Z,84.00
2022-10-21T12:14:31.086Z,40.40
2022-10-21T12:16:34.562Z,43.10
2022-10-21T12:18:41.244Z,87.00
2022-10-21T12:20:45.032Z,99.90
2022-10-21T12:22:49.236Z,99.90
2022-10-21T12:24:56.489Z,99.90
2022-10-21T12:27:03.747Z,99.90
2022-10-21T12:29:08.219Z,99.90
2022-10-21T12:31:23.945Z,99.90
2022-10-21T12:33:35.860Z,99.90
2022-10-21T12:35:49.343Z,99.90
2022-10-21T12:38:22.799Z,99.90
2022-10-21T12:40:37.343Z,99.90
2022-10-21T12:42:44.197Z,99.90
2022-10-21T12:44:47.161Z,99.90
2022-10-21T12:46:51.935Z,99.90
2022-10-21T12:48:54.854Z,99.90
2022-10-21T12:50:58.090Z,99.90
2022-10-21T12:53:13.120Z,99.90
2022-10-21T12:55:22.567Z,99.90
2022-10-21T12:57:27.357Z,99.90
2022-10-21T12:59:32.693Z,99.90
2022-10-21T13:01:42.146Z,99.90
2022-10-21T13:03:53.224Z,99.90
2022-10-21T13:06:06.013Z,99.90
2022-10-21T13:08:15.613Z,99.90
2022-10-21T13:10:28.712Z,99.90
2022-10-21T13:12:31.965Z,99.90
2022-10-21T13:14:45.579Z,99.90
2022-10-21T13:16:48.434Z,99.90
2022-10-21T13:18:58.837Z,99.90
2022-10-21T13:21:01.711Z,99.90
2022-10-21T13:23:34.173Z,99.90
2022-10-21T13:25:38.586Z,99.90
2022-10-21T13:27:41.490Z,99.90
2022-10-21T13:29:46.000Z,99.90
2022-10-21T13:31:48.863Z,99.90
2022-10-21T13:33:52.994Z,99.90
2022-10-21T13:35:58.109Z,99.90
2022-10-21T13:38:04.180Z,99.90
2022-10-21T13:40:08.876Z,99.90
2022-10-21T13:42:16.874Z,99.90
2022-10-21T13:44:24.454Z,99.90
2022-10-21T13:46:31.076Z,99.90
2022-10-21T13:48:38.530Z,99.90
2022-10-21T13:50:42.528Z,99.90
2022-10-21T13:52:45.433Z,99.90
2022-10-21T13:54:54.875Z,99.90
2022-10-21T13:56:57.730Z,99.90
2022-10-21T13:59:01.994Z,99.90
2022-10-21T14:01:09.359Z,99.90
2022-10-21T14:03:17.163Z,99.90
2022-10-21T14:05:39.742Z,99.90
2022-10-21T14:07:42.857Z,99.90
2022-10-21T14:09:46.441Z,99.90
2022-10-21T14:11:50.880Z,99.90
2022-10-21T14:13:53.876Z,99.90
2022-10-21T14:15:58.078Z,99.90
2022-10-21T14:18:00.913Z,99.90
2022-10-21T14:20:06.104Z,99.90
2022-10-21T14:22:10.554Z,99.90
2022-10-21T14:24:25.468Z,99.90
2022-10-21T14:26:30.961Z,99.90
2022-10-21T14:28:34.212Z,99.90
2022-10-21T14:30:37.821Z,99.90
2022-10-21T14:32:43.936Z,99.90
2022-10-21T14:35:02.144Z,99.90
2022-10-21T14:37:09.340Z,99.90
2022-10-21T14:39:19.885Z,99.90
2022-10-21T14:41:24.820Z,99.90
2022-10-21T14:43:33.334Z,99.90
2022-10-21T14:45:37.610Z,99.90
2022-10-21T14:47:41.820Z,99.90
2022-10-21T14:49:46.818Z,99.90
2022-10-21T14:51:49.676Z,99.90
2022-10-21T14:53:55.006Z,99.90
2022-10-21T14:55:58.772Z,99.90
2022-10-21T14:58:06.163Z,99.90
2022-10-21T15:00:20.366Z,99.90
2022-10-21T15:02:24.104Z,99.90
2022-10-21T15:04:50.241Z,99.90
2022-10-21T15:07:00.553Z,99.90
2022-10-21T15:09:18.893Z,99.90
2022-10-21T15:11:24.295Z,99.90
2022-10-21T15:13:27.538Z,99.90
2022-10-21T15:15:44.965Z,99.90
2022-10-21T15:17:49.898Z,99.90
2022-10-21T15:19:54.109Z,99.90
2022-10-21T15:21:58.518Z,99.90
2022-10-21T15:24:01.376Z,99.90
2022-10-21T15:26:09.404Z,99.90
2022-10-21T15:28:12.324Z,99.90
2022-10-21T15:30:17.037Z,99.90
2022-10-21T15:32:25.467Z,99.90
2022-10-21T15:34:31.133Z,99.90
2022-10-21T15:36:36.246Z,99.90
2022-10-21T15:38:44.527Z,99.90
2022-10-21T15:40:47.425Z,99.90
2022-10-21T15:42:50.391Z,99.90
2022-10-21T15:44:53.287Z,99.90
2022-10-21T15:47:00.492Z,99.90
2022-10-21T15:49:06.922Z,99.90
2022-10-21T15:51:09.804Z,99.90
2022-10-21T15:53:14.000Z,99.90
2022-10-21T15:55:17.023Z,99.90
2022-10-21T15:57:20.776Z,99.90
2022-10-21T15:59:25.062Z,99.90
2022-10-21T16:01:28.417Z,99.90
2022-10-21T16:03:31.378Z,99.90
2022-10-21T16:05:34.246Z,99.90
2022-10-21T16:07:37.423Z,99.90
2022-10-21T16:09:41.649Z,99.90
2022-10-21T16:11:54.879Z,99.90
2022-10-21T16:14:01.620Z,99.90
2022-10-21T16:16:05.075Z,99.90
2022-10-21T16:18:11.331Z,99.90
2022-10-21T16:20:15.494Z,99.90
2022-10-21T16:22:20.729Z,99.90
2022-10-21T16:24:23.585Z,99.90
2022-10-21T16:26:28.874Z,99.90
2022-10-21T16:28:31.685Z,99.90
2022-10-21T16:30:35.412Z,99.90
2022-10-21T16:32:38.543Z,99.90
2022-10-21T16:34:41.584Z,99.90
2022-10-21T16:36:44.400Z,99.90
2022-10-21T16:38:47.888Z,99.90
2022-10-21T16:40:50.725Z,99.90
2022-10-21T16:42:54.975Z,99.90
2022-10-21T16:44:57.804Z,99.90
2022-10-21T16:47:00.630Z,99.90
2022-10-21T16:49:06.915Z,99.90
2022-10-21T16:51:13.289Z,99.90
2022-10-21T16:53:16.851Z,99.90
2022-10-21T16:55:19.844Z,99.90
2022-10-21T16:57:22.670Z,99.90
2022-10-21T16:59:26.863Z,99.90
2022-10-21T17:01:29.748Z,99.90
2022-10-21T17:03:32.887Z,99.90
2022-10-21T17:05:35.810Z,99.90
2022-10-21T17:07:38.896Z,99.90
2022-10-21T17:09:41.878Z,99.90
2022-10-21T17:11:44.782Z,99.90
2022-10-21T17:13:47.625Z,99.90
2022-10-21T17:15:51.799Z,99.90
2022-10-21T17:17:54.696Z,99.90
2022-10-21T17:19:57.541Z,99.90
2022-10-21T17:22:00.627Z,99.90
2022-10-21T17:24:03.633Z,99.90
2022-10-21T17:26:06.688Z,99.90
2022-10-21T17:28:09.515Z,99.90
2022-10-21T17:30:13.195Z,99.90
2022-10-21T17:32:17.370Z,99.90
2022-10-21T17:34:26.850Z,99.90
2022-10-21T17:36:29.677Z,99.90
2022-10-21T17:38:32.483Z,99.90
2022-10-21T17:40:35.298Z,99.90
2022-10-21T17:42:38.744Z,99.90
2022-10-21T17:44:41.825Z,99.90
2022-10-21T17:46:45.915Z,99.90
2022-10-21T17:48:51.633Z,99.90
2022-10-21T17:50:55.620Z,99.90
2022-10-21T17:52:59.300Z,99.90
2022-10-21T17:55:02.135Z,99.90
2022-10-21T17:57:05.717Z,99.90
2022-10-21T17:59:08.623Z,99.90
2022-10-21T18:01:12.527Z,99.90
2022-10-21T18:03:18.026Z,99.90
2022-10-21T18:05:22.259Z,99.90
2022-10-21T18:07:25.060Z,99.90
2022-10-21T18:09:27.980Z,99.90
2022-10-21T18:11:30.927Z,99.90
2022-10-21T18:13:34.163Z,99.90
2022-10-21T18:15:38.315Z,99.90
2022-10-21T18:17:41.597Z,99.90
2022-10-21T18:19:44.717Z,99.90
2022-10-21T18:21:48.889Z,99.90
2022-10-21T18:23:53.181Z,99.90
2022-10-21T18:25:56.033Z,99.90
2022-10-21T18:27:58.867Z,99.90
2022-10-21T18:30:01.730Z,99.90
2022-10-21T18:32:04.678Z,99.90
2022-10-21T18:34:09.183Z,99.90
2022-10-21T18:36:13.025Z,99.90
2022-10-21T18:38:17.219Z,99.90
2022-10-21T18:40:20.066Z,99.90
2022-10-21T18:42:22.911Z,99.90
2022-10-21T18:44:25.729Z,99.90
2022-10-21T18:46:28.665Z,99.90
2022-10-21T18:48:31.471Z,99.90
2022-10-21T18:50:34.334Z,99.90
2022-10-21T18:52:37.143Z,99.90
2022-10-21T18:54:41.446Z,99.90
2022-10-21T18:56:44.993Z,99.90
2022-10-21T18:58:48.168Z,99.90
2022-10-21T19:00:50.999Z,99.90
2022-10-21T19:02:53.823Z,99.90
2022-10-21T19:04:59.666Z,99.90
2022-10-21T19:07:04.826Z,99.90
2022-10-21T19:09:09.799Z,99.90
2022-10-21T19:11:14.047Z,99.90
2022-10-21T19:13:16.895Z,99.90
2022-10-21T19:15:21.208Z,99.90
2022-10-21T19:17:24.058Z,99.90
2022-10-21T19:19:27.011Z,99.90
2022-10-21T19:21:29.883Z,99.90
2022-10-21T19:23:33.687Z,99.90
2022-10-21T19:25:36.538Z,99.90
2022-10-21T19:27:41.117Z,99.90
2022-10-21T19:29:44.382Z,99.90
2022-10-21T19:33:55.058Z,99.90
2022-10-21T19:36:00.153Z,99.90
2022-10-21T19:38:05.235Z,99.90
2022-10-21T19:40:14.544Z,99.90
2022-10-21T19:42:17.377Z,99.90
2022-10-21T19:44:21.553Z,99.90
2022-10-21T19:46:25.733Z,99.90
2022-10-21T19:48:28.696Z,99.90
2022-10-21T19:50:31.581Z,99.90
2022-10-21T19:52:34.432Z,99.90
2022-10-21T19:54:44.779Z,99.90
2022-10-21T19:56:47.641Z,99.90
2022-10-21T19:58:50.460Z,99.90
2022-10-21T20:01:02.925Z,99.90
2022-10-21T20:03:05.871Z,99.90
2022-10-21T20:05:09.308Z,99.90
2022-10-21T20:07:12.131Z,99.90
2022-10-21T20:09:15.172Z,99.90
2022-10-21T20:11:18.982Z,99.90
2022-10-21T20:13:24.002Z,99.90
2022-10-21T20:15:26.847Z,99.90
2022-10-21T20:19:34.784Z,99.90
2022-10-21T20:21:37.723Z,99.90
2022-10-21T20:23:40.634Z,99.90
2022-10-21T20:25:48.637Z,99.90
2022-10-21T20:27:51.468Z,99.90
2022-10-21T20:29:54.331Z,99.90
2022-10-21T20:31:57.154Z,99.90
2022-10-21T20:34:01.337Z,99.90
2022-10-21T20:36:04.628Z,99.90
2022-10-21T20:38:07.451Z,99.90
2022-10-21T20:40:10.947Z,99.90
2022-10-21T20:42:13.808Z,99.90
2022-10-21T20:44:17.216Z,99.90
2022-10-21T20:46:20.895Z,99.90
2022-10-21T20:48:23.715Z,99.90
2022-10-21T20:50:28.014Z,99.90
2022-10-21T20:52:30.865Z,99.90
2022-10-21T20:54:33.770Z,99.90
2022-10-21T20:56:38.143Z,99.90
2022-10-21T20:58:41.781Z,99.90
2022-10-21T21:00:46.469Z,99.90
2022-10-21T21:02:50.106Z,99.90
2022-10-21T21:04:52.983Z,99.90
2022-10-21T21:06:57.211Z,99.90
2022-10-21T21:09:37.694Z,99.90
2022-10-21T21:11:22.901Z,99.90
2022-10-21T21:13:25.784Z,99.90
2022-10-21T21:15:28.758Z,99.90
2022-10-21T21:17:31.580Z,99.90
2022-10-21T21:19:34.452Z,99.90
2022-10-21T21:21:37.389Z,99.90
2022-10-21T21:23:42.022Z,99.90
2022-10-21T21:25:44.860Z,99.90
2022-10-21T21:27:47.704Z,99.90
2022-10-21T21:29:50.607Z,99.90
2022-10-21T21:31:53.504Z,99.90
2022-10-21T21:33:56.367Z,99.90
2022-10-21T21:35:59.315Z,99.90
2022-10-21T21:38:02.177Z,99.90
2022-10-21T21:40:08.333Z,99.90
2022-10-21T21:42:11.565Z,99.90
2022-10-21T21:44:14.412Z,99.90
2022-10-21T21:46:22.756Z,99.90
2022-10-21T21:48:25.703Z,99.90
2022-10-21T21:50:28.578Z,99.90
2022-10-21T21:52:32.225Z,99.90
2022-10-21T21:54:35.077Z,99.90
2022-10-21T21:56:39.676Z,99.90
2022-10-21T21:58:42.523Z,99.90
2022-10-21T22:00:45.397Z,99.90
2022-10-21T22:02:48.224Z,99.90
2022-10-21T22:04:51.040Z,99.90
2022-10-21T22:06:53.910Z,99.90
2022-10-21T22:08:56.810Z,99.90
2022-10-21T22:11:04.924Z,99.90
2022-10-21T22:13:09.264Z,99.90
2022-10-21T22:15:19.837Z,99.90
2022-10-21T22:17:35.435Z,99.90
2022-10-21T22:19:38.328Z,99.90
2022-10-21T22:21:41.197Z,99.90
2022-10-21T22:23:45.312Z,99.90
2022-10-21T22:25:48.440Z,99.90
2022-10-21T22:27:51.272Z,99.90
2022-10-21T22:29:55.539Z,99.90
2022-10-21T22:31:58.394Z,99.90
2022-10-21T22:34:01.558Z,99.90
2022-10-21T22:36:04.776Z,99.90
2022-10-21T22:38:08.111Z,99.90
2022-10-21T22:40:12.021Z,99.90
2022-10-21T22:42:14.861Z,99.90
2022-10-21T22:44:17.699Z,99.90
2022-10-21T22:46:33.504Z,99.90
2022-10-21T22:48:36.985Z,99.90
2022-10-21T22:50:39.832Z,99.90
2022-10-21T22:52:42.911Z,99.90
2022-10-21T22:54:49.928Z,99.90
2022-10-21T22:56:53.001Z,99.90
2022-10-21T22:58:57.128Z,99.90
2022-10-21T23:01:01.275Z,99.90
2022-10-21T23:03:08.908Z,99.90
2022-10-21T23:05:12.697Z,99.90
2022-10-21T23:07:15.541Z,99.90
2022-10-21T23:09:18.388Z,99.90
2022-10-21T23:11:21.312Z,99.90
2022-10-21T23:13:24.148Z,99.90
2022-10-21T23:15:27.359Z,99.90
2022-10-21T23:17:30.594Z,99.90
2022-10-21T23:19:34.809Z,99.90
2022-10-21T23:21:37.865Z,99.90
2022-10-21T23:23:41.187Z,99.90
2022-10-21T23:25:44.038Z,99.90
2022-10-21T23:27:46.870Z,99.90
2022-10-21T23:29:50.045Z,99.90
2022-10-21T23:31:52.970Z,99.90
2022-10-21T23:33:55.829Z,99.90
2022-10-21T23:36:00.066Z,99.90
2022-10-21T23:38:02.920Z,99.90
2022-10-21T23:40:06.586Z,99.90
2022-10-21T23:42:09.445Z,99.90
2022-10-21T23:44:12.273Z,99.90
2022-10-21T23:46:15.191Z,99.90
2022-10-21T23:48:18.116Z,99.90
2022-10-21T23:50:21.126Z,99.90
2022-10-21T23:52:25.377Z,99.90
2022-10-21T23:54:28.219Z,99.90
2022-10-21T23:56:32.290Z,99.90
2022-10-21T23:58:35.151Z,99.90
